Time;durP1;ratioP1;P1;durP2;ratioP2;P2;SDS_P1;SDS_P2;PMS_P1;PMS_P2;Temp;Humidity;BMP_temperature;BMP_pressure;BME280_temperature;BME280_humidity;BME280_pressure;Samples;Min_cycle;Max_cycle;Signal;HPM_P1;HPM_P2
2021/11/03 00:01:48;;;;;;;5.10;2.70;;;;;;;3.31;100.00;97683.25;4974129;28;20153;-79
2021/11/03 00:04:15;;;;;;;6.88;3.15;;;;;;;3.41;100.00;97684.91;4972264;28;20102;-79
2021/11/03 00:06:44;;;;;;;7.30;2.72;;;;;;;3.58;100.00;97677.56;4966403;28;20046;-79
2021/11/03 00:09:11;;;;;;;4.47;2.97;;;;;;;3.58;100.00;97680.25;4973804;28;20050;-79
2021/11/03 00:11:40;;;;;;;4.05;2.70;;;;;;;3.61;100.00;97661.91;4974087;28;20121;-79
2021/11/03 00:14:07;;;;;;;5.43;2.83;;;;;;;3.56;100.00;97650.88;4973936;28;20109;-79
2021/11/03 00:16:35;;;;;;;3.75;2.88;;;;;;;3.60;100.00;97646.84;4973783;28;20047;-79
2021/11/03 00:19:01;;;;;;;3.40;2.70;;;;;;;3.76;100.00;97664.69;4973938;28;20106;-79
2021/11/03 00:21:32;;;;;;;5.53;2.50;;;;;;;3.67;100.00;97661.25;4973397;28;20054;-79
2021/11/03 00:24:01;;;;;;;;;;;;;;;3.73;100.00;97662.34;4973480;28;20054;-79
2021/11/03 00:26:28;;;;;;;5.50;3.53;;;;;;;3.71;100.00;97667.91;4973636;28;20414;-79
2021/11/03 00:28:56;;;;;;;6.05;3.50;;;;;;;3.58;100.00;97673.03;4973935;28;20046;-79
2021/11/03 00:31:23;;;;;;;4.65;3.13;;;;;;;3.53;100.00;97668.19;4973279;28;20051;-79
2021/11/03 00:33:50;;;;;;;7.60;3.60;;;;;;;3.51;100.00;97666.72;4973019;28;20569;-79
2021/11/03 00:36:17;;;;;;;5.65;3.15;;;;;;;3.50;100.00;97675.78;4973580;28;20051;-79
2021/11/03 00:38:44;;;;;;;6.80;3.30;;;;;;;3.50;100.00;97687.34;4970635;28;20063;-80
2021/11/03 00:41:11;;;;;;;4.70;3.63;;;;;;;3.50;100.00;97684.66;4972275;28;20059;-80
2021/11/03 00:43:37;;;;;;;7.85;3.78;;;;;;;3.46;100.00;97683.38;4973378;28;20070;-79
2021/11/03 00:46:05;;;;;;;5.97;3.53;;;;;;;3.46;100.00;97687.88;4973713;28;20055;-79
2021/11/03 00:48:32;;;;;;;8.02;4.10;;;;;;;3.35;100.00;97667.63;4973259;28;20470;-80
2021/11/03 00:51:00;;;;;;;6.40;4.65;;;;;;;3.42;100.00;97668.59;4973465;28;20107;-79
2021/11/03 00:53:27;;;;;;;8.30;6.05;;;;;;;3.44;100.00;97671.94;4972972;28;20494;-79
2021/11/03 00:55:54;;;;;;;9.80;6.38;;;;;;;3.45;100.00;97662.03;4973616;28;20046;-80
2021/11/03 00:58:20;;;;;;;6.15;4.18;;;;;;;3.52;100.00;97666.53;4969482;28;20499;-79
2021/11/03 01:00:47;;;;;;;5.95;4.00;;;;;;;3.56;100.00;97653.56;4973335;28;20113;-80
2021/11/03 01:03:16;;;;;;;13.10;5.53;;;;;;;3.58;100.00;97632.72;4973151;28;20087;-80
2021/11/03 01:05:42;;;;;;;7.20;3.60;;;;;;;3.65;100.00;97643.59;4973303;28;20055;-79
2021/11/03 01:08:11;;;;;;;5.47;3.80;;;;;;;3.77;100.00;97638.66;4973175;28;20101;-80
2021/11/03 01:10:39;;;;;;;5.30;3.22;;;;;;;3.73;100.00;97619.34;4973509;28;20102;-78
2021/11/03 01:13:06;;;;;;;7.18;2.40;;;;;;;3.90;100.00;97638.91;4971776;28;20113;-79
2021/11/03 01:15:35;;;;;;;2.85;2.38;;;;;;;3.97;100.00;97621.00;4972804;28;20051;-79
2021/11/03 01:18:02;;;;;;;2.78;2.17;;;;;;;4.02;100.00;97615.94;4972786;28;20074;-79
2021/11/03 01:20:30;;;;;;;5.25;1.67;;;;;;;4.14;100.00;97608.28;4973052;28;20098;-79
2021/11/03 01:22:57;;;;;;;6.10;1.92;;;;;;;4.24;100.00;97590.00;4972887;28;20054;-79
2021/11/03 01:25:26;;;;;;;2.35;1.75;;;;;;;4.21;100.00;97570.72;4972781;28;20058;-79
2021/11/03 01:27:53;;;;;;;2.83;1.60;;;;;;;4.23;100.00;97574.03;4959859;28;20086;-79
2021/11/03 01:30:24;;;;;;;3.08;1.45;;;;;;;4.35;100.00;97574.44;4971897;28;20055;-79
2021/11/03 01:32:52;;;;;;;2.80;1.50;;;;;;;4.34;100.00;97570.09;4966747;28;20102;-79
2021/11/03 01:35:19;;;;;;;1.30;1.20;;;;;;;4.36;100.00;97563.47;4972394;28;20487;-79
2021/11/03 01:37:47;;;;;;;6.13;1.40;;;;;;;4.43;100.00;97577.06;4972795;28;20110;-79
2021/11/03 01:40:19;;;;;;;1.80;1.20;;;;;;;4.36;100.00;97568.88;4972128;28;20144;-79
2021/11/03 01:42:46;;;;;;;3.10;1.50;;;;;;;4.46;100.00;97579.38;4972513;28;20530;-79
2021/11/03 01:45:16;;;;;;;2.10;1.30;;;;;;;4.44;100.00;97570.63;4971790;28;20055;-79
2021/11/03 01:47:44;;;;;;;;;;;;;;;4.62;100.00;97578.34;4973695;28;20054;-79
2021/11/03 01:50:18;;;;;;;2.15;1.40;;;;;;;4.50;100.00;97561.00;4972289;28;19926;-79
2021/11/03 01:52:52;;;;;;;4.03;1.17;;;;;;;4.71;100.00;97577.25;4972560;28;20141;-79
2021/11/03 01:55:20;;;;;;;1.67;1.02;;;;;;;4.65;100.00;97566.38;4972823;28;20573;-79
2021/11/03 01:57:50;;;;;;;1.40;0.90;;;;;;;4.71;100.00;97563.78;4972712;28;20451;-80
2021/11/03 02:00:20;;;;;;;1.90;0.98;;;;;;;4.82;100.00;97567.00;4972459;28;20078;-79
2021/11/03 02:02:47;;;;;;;5.30;1.58;;;;;;;4.69;100.00;97554.22;4967885;28;20051;-79
2021/11/03 02:05:16;;;;;;;1.73;1.30;;;;;;;4.79;100.00;97555.59;4972299;28;20106;-80
2021/11/03 02:07:43;;;;;;;6.18;1.60;;;;;;;4.97;100.00;97576.75;4972572;28;20174;-79
2021/11/03 02:10:12;;;;;;;4.03;1.42;;;;;;;4.79;100.00;97562.84;4972834;28;20067;-79
2021/11/03 02:12:39;;;;;;;1.58;1.23;;;;;;;4.86;100.00;97574.50;4972080;28;20499;-79
2021/11/03 02:15:07;;;;;;;1.73;1.10;;;;;;;4.80;100.00;97577.97;4972780;28;20054;-79
2021/11/03 02:17:35;;;;;;;4.65;1.23;;;;;;;4.79;100.00;97587.06;4971207;28;20042;-80
2021/11/03 02:20:07;;;;;;;5.07;1.58;;;;;;;4.73;100.00;97574.38;4961442;28;20051;-80
2021/11/03 02:22:40;;;;;;;2.97;2.00;;;;;;;4.77;100.00;97578.34;4953145;28;20100;-79
2021/11/03 02:25:09;;;;;;;5.85;1.90;;;;;;;4.85;100.00;97575.56;4971677;28;20094;-78
2021/11/03 02:27:40;;;;;;;4.45;1.98;;;;;;;4.77;100.00;97579.19;4972867;28;20047;-79
2021/11/03 02:30:10;;;;;;;2.78;2.05;;;;;;;4.81;100.00;97574.25;4969778;28;20109;-79
2021/11/03 02:32:41;;;;;;;5.30;1.80;;;;;;;4.76;100.00;97564.03;4975019;28;20077;-79
2021/11/03 02:35:08;;;;;;;3.72;1.83;;;;;;;4.73;100.00;97558.22;4974416;28;20414;-78
2021/11/03 02:37:47;;;;;;;3.78;1.80;;;;;;;4.84;100.00;97563.09;4971731;28;20098;-78
2021/11/03 02:40:46;;;;;;;4.05;2.28;;;;;;;4.81;100.00;97565.34;4975744;28;20054;-79
2021/11/03 02:43:19;;;;;;;1.98;1.33;;;;;;;4.80;100.00;97556.41;4970888;28;20114;-78
2021/11/03 02:45:49;;;;;;;1.98;1.50;;;;;;;4.94;100.00;97557.44;4975693;28;20407;-79
2021/11/03 02:48:16;;;;;;;5.53;2.00;;;;;;;4.94;100.00;97547.50;4975353;28;20051;-79
2021/11/03 02:50:57;;;;;;;2.30;1.60;;;;;;;5.01;100.00;97539.47;4974559;28;20375;-79
2021/11/03 02:53:24;;;;;;;2.65;1.63;;;;;;;5.03;100.00;97520.44;4963683;28;20059;-79
2021/11/03 02:55:52;;;;;;;7.10;1.80;;;;;;;5.06;100.00;97525.44;4956377;29;20134;-79
2021/11/03 02:58:19;;;;;;;3.75;1.33;;;;;;;5.01;100.00;97530.59;4974388;28;20047;-79
2021/11/03 03:00:46;;;;;;;6.40;1.42;;;;;;;4.94;100.00;97523.25;4975839;28;20453;-79
2021/11/03 03:03:13;;;;;;;2.13;1.60;;;;;;;5.02;100.00;97525.00;4974729;28;20491;-78
2021/11/03 03:05:41;;;;;;;4.40;2.25;;;;;;;4.90;100.00;97527.34;4975658;28;20047;-78
2021/11/03 03:08:07;;;;;;;3.25;1.77;;;;;;;4.96;100.00;97529.28;4973578;28;20042;-78
2021/11/03 03:10:34;;;;;;;3.00;1.98;;;;;;;4.87;100.00;97516.13;4967558;28;20051;-78
2021/11/03 03:13:03;;;;;;;5.88;1.85;;;;;;;4.86;100.00;97536.81;4974799;28;20047;-78
2021/11/03 03:15:29;;;;;;;2.50;1.65;;;;;;;4.95;100.00;97543.78;4975203;28;20455;-78
2021/11/03 03:17:56;;;;;;;1.65;1.38;;;;;;;4.94;100.00;97549.38;4974913;28;20082;-78
2021/11/03 03:20:23;;;;;;;4.88;1.58;;;;;;;5.01;100.00;97530.59;4974891;28;20054;-78
2021/11/03 03:22:49;;;;;;;2.67;1.70;;;;;;;4.97;100.00;97536.34;4974032;28;20518;-78
2021/11/03 03:25:17;;;;;;;2.97;1.85;;;;;;;5.05;100.00;97531.88;4974613;28;20074;-78
2021/11/03 03:27:44;;;;;;;3.53;1.90;;;;;;;5.13;100.00;97521.81;4975135;28;20054;-78
2021/11/03 03:30:12;;;;;;;7.68;2.00;;;;;;;5.11;100.00;97521.16;4974793;28;20102;-78
2021/11/03 03:32:39;;;;;;;6.97;4.10;;;;;;;5.09;100.00;97525.91;4973748;28;20137;-79
2021/11/03 03:35:07;;;;;;;4.05;2.35;;;;;;;4.99;100.00;97521.88;4975416;28;20082;-79
2021/11/03 03:37:33;;;;;;;5.10;1.80;;;;;;;4.94;100.00;97517.88;4974930;28;20051;-78
2021/11/03 03:40:00;;;;;;;2.38;1.60;;;;;;;4.94;100.00;97522.44;4968539;28;20468;-78
2021/11/03 03:42:27;;;;;;;3.80;1.45;;;;;;;4.93;100.00;97518.06;4973862;28;20047;-78
2021/11/03 03:44:54;;;;;;;2.00;1.40;;;;;;;4.94;100.00;97512.50;4974840;28;20052;-78
2021/11/03 03:47:22;;;;;;;1.60;1.50;;;;;;;4.95;100.00;97503.41;4974159;28;20115;-78
2021/11/03 03:49:49;;;;;;;6.60;1.75;;;;;;;4.97;100.00;97498.63;4974587;28;20106;-78
2021/11/03 03:52:16;;;;;;;5.40;1.48;;;;;;;5.04;100.00;97495.19;4973772;28;20047;-78
2021/11/03 03:54:42;;;;;;;2.42;1.67;;;;;;;4.96;100.00;97490.75;4974222;28;20046;-78
2021/11/03 03:57:09;;;;;;;5.30;1.80;;;;;;;5.01;100.00;97496.38;4986847;28;20084;-78
2021/11/03 03:59:36;;;;;;;2.95;1.60;;;;;;;5.03;100.00;97494.34;4970019;28;20119;-78
2021/11/03 04:02:04;;;;;;;2.00;1.60;;;;;;;5.14;100.00;97499.22;4967081;28;20051;-78
2021/11/03 04:04:33;;;;;;;2.20;1.50;;;;;;;5.23;100.00;97483.78;4973927;28;20051;-78
2021/11/03 04:06:59;;;;;;;4.40;1.55;;;;;;;5.28;100.00;97486.75;4970521;28;20082;-78
2021/11/03 04:09:26;;;;;;;8.57;4.47;;;;;;;5.13;100.00;97500.28;4973658;28;20110;-78
2021/11/03 04:11:53;;;;;;;2.20;1.70;;;;;;;5.08;100.00;97491.91;4973657;28;20400;-78
2021/11/03 04:14:20;;;;;;;2.72;1.58;;;;;;;5.14;100.00;97498.41;4971916;28;20044;-78
2021/11/03 04:16:46;;;;;;;2.78;1.52;;;;;;;5.13;100.00;97507.50;4973985;28;20042;-78
2021/11/03 04:19:13;;;;;;;3.70;1.35;;;;;;;5.17;100.00;97500.72;4974130;28;20050;-78
2021/11/03 04:21:41;;;;;;;6.82;1.60;;;;;;;5.16;100.00;97507.13;4973250;28;20051;-78
2021/11/03 04:24:08;;;;;;;2.15;1.25;;;;;;;5.16;100.00;97503.59;4973963;28;20098;-78
2021/11/03 04:26:37;;;;;;;1.30;1.20;;;;;;;5.23;100.00;97499.13;4973707;28;20047;-79
2021/11/03 04:29:04;;;;;;;2.33;1.38;;;;;;;5.26;100.00;97499.56;4973975;28;20482;-79
2021/11/03 04:31:31;;;;;;;3.03;1.33;;;;;;;5.20;100.00;97489.56;4973120;28;20047;-79
2021/11/03 04:33:58;;;;;;;4.97;1.20;;;;;;;5.26;100.00;97493.34;4972167;28;20054;-78
2021/11/03 04:36:25;;;;;;;2.58;1.23;;;;;;;5.28;100.00;97502.06;4973221;28;20046;-79
2021/11/03 04:38:57;;;;;;;5.75;1.48;;;;;;;5.25;100.00;97488.97;4973461;28;20499;-79
2021/11/03 04:41:25;;;;;;;2.10;1.20;;;;;;;5.24;100.00;97487.31;4973692;28;20172;-79
2021/11/03 04:43:52;;;;;;;2.55;1.35;;;;;;;5.26;100.00;97496.03;4973119;28;20043;-79
2021/11/03 04:46:19;;;;;;;3.72;1.25;;;;;;;5.25;100.00;97491.66;4973749;28;20086;-79
2021/11/03 04:48:47;;;;;;;4.95;1.60;;;;;;;5.27;100.00;97479.69;4971980;28;20376;-78
2021/11/03 04:51:14;;;;;;;2.58;1.63;;;;;;;5.29;100.00;97479.50;4970934;28;20059;-79
2021/11/03 04:53:41;;;;;;;2.42;1.15;;;;;;;5.25;100.00;97478.19;4972316;28;20047;-79
2021/11/03 04:56:14;;;;;;;2.75;1.30;;;;;;;5.30;100.00;97470.38;4973250;28;20125;-79
2021/11/03 04:58:41;;;;;;;4.07;1.50;;;;;;;5.34;100.00;97474.34;4973208;28;20047;-79
2021/11/03 05:01:09;;;;;;;5.80;2.10;;;;;;;5.38;100.00;97464.84;4971815;28;20054;-78
2021/11/03 05:03:36;;;;;;;2.42;1.58;;;;;;;5.34;100.00;97468.13;4973193;28;20051;-80
2021/11/03 05:06:04;;;;;;;2.38;1.52;;;;;;;5.32;100.00;97461.06;4971476;28;20507;-79
2021/11/03 05:08:31;;;;;;;2.95;1.23;;;;;;;5.37;100.00;97451.56;4962107;28;20055;-77
2021/11/03 05:10:58;;;;;;;3.88;1.20;;;;;;;5.35;100.00;97445.56;4955342;29;20087;-78
2021/11/03 05:13:27;;;;;;;6.60;1.40;;;;;;;5.34;100.00;97443.88;4954421;29;20059;-77
2021/11/03 05:15:54;;;;;;;2.47;1.33;;;;;;;5.34;100.00;97455.47;4963474;28;20055;-77
2021/11/03 05:18:23;;;;;;;2.25;1.40;;;;;;;5.34;100.00;97455.47;4972911;28;20051;-78
2021/11/03 05:20:53;;;;;;;2.45;1.50;;;;;;;5.26;100.00;97439.47;4972654;28;20479;-78
2021/11/03 05:23:24;;;;;;;2.63;1.50;;;;;;;5.31;100.00;97450.47;4954154;28;20046;-78
2021/11/03 05:25:55;;;;;;;2.38;1.50;;;;;;;5.33;100.00;97440.38;4965077;28;20057;-78
2021/11/03 05:28:23;;;;;;;2.38;1.60;;;;;;;5.44;100.00;97433.63;4972931;28;20047;-78
2021/11/03 05:30:54;;;;;;;6.38;1.73;;;;;;;5.31;100.00;97426.22;4973163;28;20470;-77
2021/11/03 05:33:21;;;;;;;2.00;1.60;;;;;;;5.43;100.00;97427.38;4971531;28;20487;-77
2021/11/03 05:35:48;;;;;;;4.50;1.60;;;;;;;5.28;100.00;97400.53;4972609;28;20046;-77
2021/11/03 05:38:15;;;;;;;1.63;1.40;;;;;;;5.50;100.00;97417.47;4972772;28;20042;-78
2021/11/03 05:40:42;;;;;;;2.03;1.42;;;;;;;5.42;100.00;97406.00;4971641;28;20122;-77
2021/11/03 05:43:09;;;;;;;2.50;1.30;;;;;;;5.34;100.00;97416.94;4972485;28;20054;-77
2021/11/03 05:45:35;;;;;;;5.00;1.20;;;;;;;5.40;100.00;97413.47;4972548;28;20054;-77
2021/11/03 05:48:05;;;;;;;2.08;1.50;;;;;;;5.54;100.00;97406.31;4973260;28;20066;-78
2021/11/03 05:50:34;;;;;;;2.80;1.40;;;;;;;5.49;100.00;97402.34;4972454;28;20098;-78
2021/11/03 05:53:01;;;;;;;2.45;1.13;;;;;;;5.46;100.00;97400.03;4972177;28;20448;-78
2021/11/03 05:55:28;;;;;;;1.95;1.23;;;;;;;5.60;100.00;97400.13;4971563;28;20055;-78
2021/11/03 05:57:56;;;;;;;1.83;1.50;;;;;;;5.60;100.00;97387.50;4972421;28;20072;-78
2021/11/03 06:00:26;;;;;;;2.08;1.40;;;;;;;5.72;100.00;97385.09;4972237;28;20051;-78
2021/11/03 06:02:52;;;;;;;;;;;;;;;5.75;100.00;97384.69;4972884;28;20459;-78
2021/11/03 06:05:21;;;;;;;4.40;3.08;;;;;;;5.57;100.00;97377.13;4975564;28;19964;-78
2021/11/03 06:07:51;;;;;;;2.08;1.80;;;;;;;5.63;100.00;97370.06;4975959;28;20106;-77
2021/11/03 06:10:20;;;;;;;;;;;;;;;5.67;100.00;97366.81;4959499;28;20051;-78
2021/11/03 06:12:47;;;;;;;4.43;1.70;;;;;;;5.65;100.00;97365.34;4974589;28;20282;-77
2021/11/03 06:15:14;;;;;;;3.65;2.10;;;;;;;5.58;100.00;97367.16;4976059;28;20113;-77
2021/11/03 06:17:41;;;;;;;2.17;1.52;;;;;;;5.61;100.00;97356.78;4976235;28;20458;-77
2021/11/03 06:20:09;;;;;;;3.15;1.33;;;;;;;5.64;100.00;97351.00;4975879;28;20055;-78
2021/11/03 06:22:37;;;;;;;1.00;0.90;;;;;;;5.71;100.00;97351.06;4976585;28;20418;-78
2021/11/03 06:25:05;;;;;;;1.88;1.30;;;;;;;5.71;100.00;97350.25;4975894;28;20517;-77
2021/11/03 06:27:32;;;;;;;1.30;1.20;;;;;;;5.66;100.00;97358.91;4976226;28;20482;-79
2021/11/03 06:29:59;;;;;;;1.92;1.20;;;;;;;5.57;100.00;97360.94;4974443;28;20051;-77
2021/11/03 06:32:25;;;;;;;2.83;1.27;;;;;;;5.68;100.00;97365.75;4974816;28;20082;-77
2021/11/03 06:34:52;;;;;;;1.10;1.00;;;;;;;5.70;100.00;97351.25;4975582;28;20105;-77
2021/11/03 06:37:19;;;;;;;1.17;0.98;;;;;;;5.82;100.00;97347.78;4975902;28;20811;-77
2021/11/03 06:39:47;;;;;;;3.03;1.30;;;;;;;5.83;100.00;97340.56;4975582;28;20129;-77
2021/11/03 06:42:13;;;;;;;2.63;1.02;;;;;;;5.84;100.00;97334.97;4975773;28;20565;-77
2021/11/03 06:44:40;;;;;;;3.30;1.33;;;;;;;5.88;100.00;97342.66;4974513;28;20130;-77
2021/11/03 06:47:07;;;;;;;1.33;1.10;;;;;;;5.85;100.00;97343.88;4967282;28;20076;-78
2021/11/03 06:49:34;;;;;;;2.88;1.08;;;;;;;5.89;100.00;97339.75;4975432;28;20057;-78
2021/11/03 06:52:00;;;;;;;1.15;1.00;;;;;;;5.95;100.00;97347.03;4973305;28;20055;-78
2021/11/03 06:54:27;;;;;;;1.92;0.98;;;;;;;6.02;100.00;97352.50;4974853;28;20055;-78
2021/11/03 06:56:55;;;;;;;2.90;1.80;;;;;;;5.96;100.00;97356.81;4984824;28;20055;-78
2021/11/03 06:59:22;;;;;;;2.70;1.00;;;;;;;5.96;100.00;97358.66;4975082;28;20109;-77
2021/11/03 07:01:49;;;;;;;2.97;2.22;;;;;;;5.89;100.00;97371.28;4976740;28;20577;-78
2021/11/03 07:04:16;;;;;;;1.75;1.00;;;;;;;5.93;100.00;97357.22;4975467;28;20648;-77
2021/11/03 07:06:43;;;;;;;1.77;1.35;;;;;;;6.11;100.00;97359.41;4974395;28;20058;-77
2021/11/03 07:09:10;;;;;;;1.70;0.82;;;;;;;6.13;100.00;97357.31;4975547;28;20047;-77
2021/11/03 07:11:37;;;;;;;3.20;0.93;;;;;;;6.16;100.00;97358.81;4975436;28;20062;-78
2021/11/03 07:14:06;;;;;;;1.02;0.90;;;;;;;6.10;100.00;97376.63;4975352;28;20471;-78
2021/11/03 07:16:33;;;;;;;2.65;0.80;;;;;;;6.05;100.00;97373.66;4974289;28;20119;-78
2021/11/03 07:19:00;;;;;;;1.25;0.95;;;;;;;6.15;100.00;97386.81;4973651;28;20055;-78
2021/11/03 07:21:27;;;;;;;4.43;0.70;;;;;;;6.21;100.00;97383.31;4974721;28;20114;-79
2021/11/03 07:23:54;;;;;;;1.42;0.77;;;;;;;6.22;100.00;97384.97;4975237;28;20458;-79
2021/11/03 07:26:21;;;;;;;1.77;0.80;;;;;;;6.34;100.00;97369.88;4975393;28;20089;-78
2021/11/03 07:28:47;;;;;;;2.85;2.10;;;;;;;6.30;100.00;97383.97;4974645;28;20071;-77
2021/11/03 07:31:16;;;;;;;1.58;1.30;;;;;;;6.45;100.00;97379.25;4974755;28;20106;-78
2021/11/03 07:33:42;;;;;;;1.60;0.85;;;;;;;6.51;100.00;97370.34;4974333;28;20062;-78
2021/11/03 07:36:20;;;;;;;1.95;0.88;;;;;;;6.50;100.00;97373.25;4973409;28;20055;-78
2021/11/03 07:38:47;;;;;;;0.68;0.65;;;;;;;6.49;100.00;97375.13;4968399;28;20074;-78
2021/11/03 07:41:16;;;;;;;1.85;1.02;;;;;;;6.52;100.00;97355.00;4974427;28;20129;-80
2021/11/03 07:43:45;;;;;;;1.23;0.88;;;;;;;6.49;100.00;97348.13;4975657;28;20102;-78
2021/11/03 07:46:14;;;;;;;4.32;1.08;;;;;;;6.46;100.00;97350.38;4974634;28;20051;-78
2021/11/03 07:48:41;;;;;;;3.15;1.00;;;;;;;6.44;100.00;97360.56;4974872;28;20043;-78
2021/11/03 07:51:14;;;;;;;4.97;1.10;;;;;;;6.40;100.00;97380.88;4968901;28;20051;-78
2021/11/03 07:53:41;;;;;;;1.05;0.98;;;;;;;6.40;100.00;97391.69;4973592;28;20491;-78
2021/11/03 07:56:14;;;;;;;1.73;1.02;;;;;;;6.38;100.00;97379.25;4974801;28;20047;-78
2021/11/03 07:58:41;;;;;;;2.00;1.17;;;;;;;6.33;100.00;97383.56;4974242;28;20050;-78
2021/11/03 08:01:08;;;;;;;2.78;1.60;;;;;;;6.35;100.00;97366.16;4974905;28;20118;-78
2021/11/03 08:03:37;;;;;;;4.93;1.13;;;;;;;6.50;100.00;97366.00;4974265;28;20047;-78
2021/11/03 08:06:06;;;;;;;1.30;1.00;;;;;;;6.53;100.00;97337.72;4955149;29;20051;-78
2021/11/03 08:08:37;;;;;;;2.08;1.20;;;;;;;6.66;100.00;97347.75;4967006;28;20125;-78
2021/11/03 08:11:05;;;;;;;1.08;0.98;;;;;;;6.68;100.00;97367.25;4973826;28;20054;-78
2021/11/03 08:13:32;;;;;;;2.78;1.35;;;;;;;6.66;100.00;97364.78;4974134;28;20046;-78
2021/11/03 08:16:03;;;;;;;2.38;1.17;;;;;;;6.78;100.00;97356.91;4973858;28;20125;-78
2021/11/03 08:18:32;;;;;;;1.48;1.10;;;;;;;6.84;100.00;97341.75;4974089;28;20053;-78
2021/11/03 08:21:01;;;;;;;1.65;0.57;;;;;;;7.00;100.00;97344.06;4973915;28;20050;-79
2021/11/03 08:23:28;;;;;;;1.70;0.90;;;;;;;7.08;100.00;97349.25;4972213;28;20055;-78
2021/11/03 08:25:55;;;;;;;0.80;0.75;;;;;;;7.17;100.00;97341.78;4973791;28;20114;-78
2021/11/03 08:28:25;;;;;;;1.42;0.77;;;;;;;7.23;100.00;97327.44;4973452;28;20098;-78
2021/11/03 08:30:54;;;;;;;1.23;0.80;;;;;;;7.10;100.00;97313.91;4974134;28;20055;-78
2021/11/03 08:33:28;;;;;;;1.00;0.90;;;;;;;7.21;100.00;97323.25;4973054;28;20098;-78
2021/11/03 08:35:56;;;;;;;0.80;0.80;;;;;;;7.11;100.00;97296.66;4973876;28;20046;-78
2021/11/03 08:38:25;;;;;;;1.75;1.00;;;;;;;7.13;100.00;97304.56;4973409;28;20047;-79
2021/11/03 08:40:53;;;;;;;3.25;0.88;;;;;;;7.27;100.00;97306.19;4972593;28;20078;-79
2021/11/03 08:43:26;;;;;;;4.20;1.40;;;;;;;7.29;100.00;97303.28;4972856;28;20062;-78
2021/11/03 08:45:55;;;;;;;2.53;1.02;;;;;;;7.25;100.00;97309.13;4973961;28;20153;-78
2021/11/03 08:48:24;;;;;;;0.98;0.88;;;;;;;7.18;100.00;97305.59;4973547;28;20107;-78
2021/11/03 08:50:52;;;;;;;1.55;1.00;;;;;;;7.21;100.00;97320.56;4963392;28;20065;-78
2021/11/03 08:53:19;;;;;;;1.40;0.80;;;;;;;7.12;100.00;97327.22;4972682;28;20472;-78
2021/11/03 08:55:48;;;;;;;1.27;1.00;;;;;;;7.12;100.00;97319.09;4973333;28;20050;-79
2021/11/03 08:58:16;;;;;;;3.67;0.85;;;;;;;7.24;100.00;97322.84;4971017;28;20043;-78
2021/11/03 09:00:46;;;;;;;1.55;1.02;;;;;;;7.31;100.00;97318.25;4967261;28;20047;-79
2021/11/03 09:03:14;;;;;;;1.30;0.88;;;;;;;7.33;100.00;97320.75;4970329;28;20047;-78
2021/11/03 09:05:41;;;;;;;1.38;0.70;;;;;;;7.28;100.00;97313.28;4973436;28;20110;-78
2021/11/03 09:08:08;;;;;;;1.15;0.90;;;;;;;7.32;100.00;97317.25;4973579;28;20054;-79
2021/11/03 09:10:45;;;;;;;2.92;0.90;;;;;;;7.35;100.00;97316.81;4973170;28;20050;-79
2021/11/03 09:13:15;;;;;;;0.82;0.70;;;;;;;7.24;100.00;97337.22;4973293;28;20051;-78
2021/11/03 09:16:00;;;;;;;0.68;0.60;;;;;;;7.12;100.00;97322.66;4972453;28;20493;-79
2021/11/03 09:18:39;;;;;;;0.90;0.90;;;;;;;7.13;100.00;97340.50;4973105;28;20488;-79
2021/11/03 09:21:08;;;;;;;2.13;1.00;;;;;;;7.14;100.00;97338.66;4973158;28;20114;-79
2021/11/03 09:23:35;;;;;;;1.98;1.30;;;;;;;7.25;100.00;97346.13;4972702;28;20051;-79
2021/11/03 09:26:26;;;;;;;4.80;1.10;;;;;;;7.48;100.00;97337.59;4973319;28;20491;-79
2021/11/03 09:28:58;;;;;;;4.07;1.83;;;;;;;7.60;100.00;97340.47;4958077;28;20058;-79
2021/11/03 09:31:25;;;;;;;3.28;1.17;;;;;;;7.74;100.00;97344.84;4973331;28;20062;-78
2021/11/03 09:33:52;;;;;;;2.50;1.08;;;;;;;7.77;100.00;97338.19;4971401;28;20049;-79
2021/11/03 09:36:27;;;;;;;6.25;1.45;;;;;;;7.80;100.00;97322.34;4973344;28;20054;-79
2021/11/03 09:39:20;;;;;;;2.17;1.23;;;;;;;8.05;100.00;97328.94;4973345;28;20054;-79
2021/11/03 09:41:51;;;;;;;7.90;2.20;;;;;;;8.09;100.00;97331.00;4976756;28;20051;-79
2021/11/03 10:00:41;;;;;;;2.17;1.20;;;;;;;8.49;99.19;97338.13;4955108;28;20062;-79
2021/11/03 10:10:22;;;;;;;3.58;1.10;;;;;;;8.59;99.81;97349.34;4905473;28;20059;-79
2021/11/03 10:12:52;;;;;;;2.47;1.08;;;;;;;8.60;99.20;97340.16;4965763;28;20133;-79
2021/11/03 10:15:36;;;;;;;5.95;1.48;;;;;;;8.65;98.93;97324.09;4957286;29;20063;-79
2021/11/03 10:18:22;;;;;;;1.38;1.00;;;;;;;8.65;97.23;97332.22;4957145;29;20451;-79
2021/11/03 10:21:03;;;;;;;1.13;1.02;;;;;;;8.76;96.57;97330.72;4957462;29;20055;-79
2021/11/03 10:23:42;;;;;;;1.38;1.23;;;;;;;8.84;95.80;97318.78;4958343;28;20047;-79
2021/11/03 10:26:13;;;;;;;1.70;1.20;;;;;;;9.00;94.46;97344.50;4968306;28;20051;-79
2021/11/03 10:29:01;;;;;;;3.88;1.30;;;;;;;8.86;93.28;97341.06;4972744;28;20146;-79
2021/11/03 10:31:31;;;;;;;3.53;1.00;;;;;;;8.82;97.58;97343.38;4956115;29;20057;-79
2021/11/03 10:34:04;;;;;;;2.72;0.82;;;;;;;8.71;92.74;97327.81;4956739;29;20071;-79
2021/11/03 10:36:40;;;;;;;0.80;0.80;;;;;;;8.83;95.30;97339.59;4956937;29;20055;-79
2021/11/03 10:39:19;;;;;;;6.70;1.23;;;;;;;8.78;94.64;97344.84;4956742;29;20051;-80
2021/11/03 10:42:01;;;;;;;2.45;0.93;;;;;;;8.79;95.16;97351.94;4960335;28;20290;-79
2021/11/03 10:44:32;;;;;;;1.35;0.80;;;;;;;8.86;96.14;97362.72;4967928;28;20082;-79
2021/11/03 10:47:15;;;;;;;1.45;0.98;;;;;;;8.79;97.51;97364.63;4961598;28;20507;-79
2021/11/03 10:50:15;;;;;;;1.55;1.02;;;;;;;8.58;97.75;97344.97;4963523;28;20133;-79
2021/11/03 10:52:51;;;;;;;2.13;1.30;;;;;;;8.58;96.96;97352.25;4936277;29;20496;-79
2021/11/03 10:55:25;;;;;;;4.00;1.30;;;;;;;8.61;95.86;97360.78;4955030;29;20423;-79
2021/11/03 10:58:03;;;;;;;2.35;1.27;;;;;;;8.72;97.94;97356.56;4956264;29;20415;-80
2021/11/03 11:00:36;;;;;;;6.60;1.42;;;;;;;8.79;97.09;97343.81;4956284;29;20051;-80
2021/11/03 11:03:06;;;;;;;5.32;1.45;;;;;;;8.93;96.56;97349.97;4956088;29;20051;-79
2021/11/03 11:05:41;;;;;;;3.63;1.77;;;;;;;9.04;94.68;97360.09;4958285;28;20101;-79
2021/11/03 11:08:19;;;;;;;2.45;1.30;;;;;;;9.12;95.25;97358.19;4959529;28;20501;-80
2021/11/03 11:10:52;;;;;;;2.35;1.02;;;;;;;9.15;95.17;97346.88;4956044;29;20051;-79
2021/11/03 11:13:26;;;;;;;4.00;1.38;;;;;;;9.26;97.38;97356.19;4955828;29;20051;-80
2021/11/03 11:16:00;;;;;;;1.52;0.95;;;;;;;9.43;95.35;97362.72;4956249;29;20055;-79
2021/11/03 11:18:43;;;;;;;4.85;1.10;;;;;;;9.42;93.93;97379.22;4955838;29;20059;-79
2021/11/03 11:21:18;;;;;;;3.22;1.23;;;;;;;9.26;92.67;97373.31;4953803;28;20102;-80
2021/11/03 11:23:51;;;;;;;3.42;1.40;;;;;;;9.20;93.89;97374.19;4965150;28;20055;-79
2021/11/03 11:26:26;;;;;;;12.10;2.03;;;;;;;9.13;95.62;97378.81;4956174;29;20059;-79
2021/11/03 11:29:11;;;;;;;2.70;1.45;;;;;;;9.12;96.03;97356.31;4955674;29;20062;-80
2021/11/03 11:31:46;;;;;;;4.25;1.20;;;;;;;9.16;97.56;97370.25;4955340;29;20393;-79
2021/11/03 11:34:30;;;;;;;8.68;1.80;;;;;;;9.27;99.49;97372.22;4955546;29;20491;-79
2021/11/03 11:37:05;;;;;;;3.95;2.00;;;;;;;9.27;96.60;97377.66;4955809;29;20492;-79
2021/11/03 11:39:41;;;;;;;3.00;1.90;;;;;;;9.24;99.05;97386.22;4962131;28;20044;-79
2021/11/03 11:42:17;;;;;;;4.80;2.63;;;;;;;9.13;97.69;97390.47;4971284;28;20051;-79
2021/11/03 11:44:58;;;;;;;4.80;2.63;;;;;;;9.09;97.70;97389.25;4958840;28;20553;-79
2021/11/03 11:47:34;;;;;;;5.38;2.33;;;;;;;9.16;98.97;97381.09;4955595;29;20407;-79
2021/11/03 11:50:02;;;;;;;7.50;1.70;;;;;;;9.07;96.84;97379.69;4955402;29;20043;-80
2021/11/03 11:52:34;;;;;;;2.53;1.55;;;;;;;8.99;97.34;97381.63;4955137;29;20447;-79
2021/11/03 11:55:24;;;;;;;7.10;1.95;;;;;;;9.25;98.15;97389.78;4954827;29;20063;-79
2021/11/03 11:58:13;;;;;;;3.05;1.60;;;;;;;9.20;97.24;97385.03;4960197;28;20050;-80
2021/11/03 12:01:09;;;;;;;2.95;1.88;;;;;;;9.20;97.49;97379.63;4945812;29;20062;-80
2021/11/03 12:03:36;;;;;;;2.53;1.67;;;;;;;9.14;98.14;97377.78;4954803;28;20126;-80
2021/11/03 12:06:08;;;;;;;3.88;2.00;;;;;;;9.24;99.03;97369.97;4955100;29;20086;-79
2021/11/03 12:08:58;;;;;;;2.95;1.83;;;;;;;9.12;99.33;97371.72;4955296;29;20227;-80
2021/11/03 12:11:46;;;;;;;4.53;1.63;;;;;;;8.96;98.99;97362.25;4954937;29;20165;-80
2021/11/03 12:14:36;;;;;;;7.10;2.38;;;;;;;8.97;100.00;97367.47;4962014;28;20402;-79